sensor_id;sensor_type;location;lat;lon;timestamp;P1;durP1;ratioP1;P2;durP2;ratioP2
69910;SDS011;63555;49.920;17.868;2023-04-24T00:02:40;6.57;;;3.33;;
69910;SDS011;63555;49.920;17.868;2023-04-24T00:07:46;6.63;;;3.55;;
69910;SDS011;63555;49.920;17.868;2023-04-24T00:12:46;5.73;;;3.60;;
69910;SDS011;63555;49.920;17.868;2023-04-24T00:17:47;7.13;;;3.53;;
69910;SDS011;63555;49.920;17.868;2023-04-24T00:22:47;8.43;;;3.83;;
69910;SDS011;63555;49.920;17.868;2023-04-24T00:27:48;7.33;;;3.70;;
69910;SDS011;63555;49.920;17.868;2023-04-24T00:32:48;8.43;;;4.53;;
69910;SDS011;63555;49.920;17.868;2023-04-24T00:37:49;7.87;;;3.70;;
69910;SDS011;63555;49.920;17.868;2023-04-24T00:42:49;9.52;;;3.75;;
69910;SDS011;63555;49.920;17.868;2023-04-24T00:47:50;5.73;;;3.00;;
69910;SDS011;63555;49.920;17.868;2023-04-24T00:52:53;6.00;;;3.10;;
69910;SDS011;63555;49.920;17.868;2023-04-24T00:57:53;4.53;;;2.67;;
69910;SDS011;63555;49.920;17.868;2023-04-24T01:02:54;7.80;;;2.83;;
69910;SDS011;63555;49.920;17.868;2023-04-24T01:07:55;7.00;;;2.83;;
69910;SDS011;63555;49.920;17.868;2023-04-24T01:12:56;7.37;;;2.90;;
69910;SDS011;63555;49.920;17.868;2023-04-24T01:17:58;4.70;;;2.45;;
69910;SDS011;63555;49.920;17.868;2023-04-24T01:22:58;8.50;;;3.20;;
69910;SDS011;63555;49.920;17.868;2023-04-24T01:27:59;6.93;;;2.80;;
69910;SDS011;63555;49.920;17.868;2023-04-24T01:32:59;6.30;;;2.87;;
69910;SDS011;63555;49.920;17.868;2023-04-24T01:38:00;4.40;;;2.58;;
69910;SDS011;63555;49.920;17.868;2023-04-24T01:43:02;6.20;;;2.77;;
69910;SDS011;63555;49.920;17.868;2023-04-24T01:48:02;6.40;;;2.90;;
69910;SDS011;63555;49.920;17.868;2023-04-24T01:53:03;5.80;;;3.10;;
69910;SDS011;63555;49.920;17.868;2023-04-24T01:58:04;5.60;;;2.97;;
69910;SDS011;63555;49.920;17.868;2023-04-24T02:03:05;5.95;;;3.25;;
69910;SDS011;63555;49.920;17.868;2023-04-24T02:08:05;7.60;;;2.80;;
69910;SDS011;63555;49.920;17.868;2023-04-24T02:13:06;5.87;;;3.20;;
69910;SDS011;63555;49.920;17.868;2023-04-24T02:18:06;5.20;;;2.90;;
69910;SDS011;63555;49.920;17.868;2023-04-24T02:23:07;6.80;;;2.88;;
69910;SDS011;63555;49.920;17.868;2023-04-24T02:28:07;7.17;;;2.90;;
69910;SDS011;63555;49.920;17.868;2023-04-24T02:33:07;5.73;;;2.80;;
69910;SDS011;63555;49.920;17.868;2023-04-24T02:38:08;10.10;;;3.20;;
69910;SDS011;63555;49.920;17.868;2023-04-24T02:43:08;4.97;;;2.92;;
69910;SDS011;63555;49.920;17.868;2023-04-24T02:48:09;5.90;;;3.30;;
69910;SDS011;63555;49.920;17.868;2023-04-24T02:53:09;5.93;;;2.87;;
69910;SDS011;63555;49.920;17.868;2023-04-24T02:58:10;7.53;;;3.07;;
69910;SDS011;63555;49.920;17.868;2023-04-24T03:03:10;7.77;;;2.70;;
69910;SDS011;63555;49.920;17.868;2023-04-24T03:08:11;4.77;;;2.73;;
69910;SDS011;63555;49.920;17.868;2023-04-24T03:13:11;5.63;;;2.90;;
69910;SDS011;63555;49.920;17.868;2023-04-24T03:18:11;5.43;;;2.50;;
69910;SDS011;63555;49.920;17.868;2023-04-24T03:23:12;7.30;;;3.27;;
69910;SDS011;63555;49.920;17.868;2023-04-24T03:28:12;7.40;;;3.27;;
69910;SDS011;63555;49.920;17.868;2023-04-24T03:33:12;5.67;;;3.00;;
69910;SDS011;63555;49.920;17.868;2023-04-24T03:38:13;5.83;;;2.80;;
69910;SDS011;63555;49.920;17.868;2023-04-24T03:43:13;8.20;;;3.43;;
69910;SDS011;63555;49.920;17.868;2023-04-24T03:48:13;5.83;;;3.00;;
69910;SDS011;63555;49.920;17.868;2023-04-24T03:53:14;7.60;;;2.93;;
69910;SDS011;63555;49.920;17.868;2023-04-24T03:58:15;7.40;;;2.80;;
69910;SDS011;63555;49.920;17.868;2023-04-24T04:03:15;6.30;;;3.08;;
69910;SDS011;63555;49.920;17.868;2023-04-24T04:08:16;8.40;;;2.70;;
69910;SDS011;63555;49.920;17.868;2023-04-24T04:13:16;6.27;;;3.07;;
69910;SDS011;63555;49.920;17.868;2023-04-24T04:18:16;6.33;;;2.90;;
69910;SDS011;63555;49.920;17.868;2023-04-24T04:23:17;7.22;;;3.50;;
69910;SDS011;63555;49.920;17.868;2023-04-24T04:28:17;5.00;;;3.20;;
69910;SDS011;63555;49.920;17.868;2023-04-24T04:33:20;7.63;;;3.45;;
69910;SDS011;63555;49.920;17.868;2023-04-24T04:38:21;6.72;;;3.40;;
69910;SDS011;63555;49.920;17.868;2023-04-24T04:43:21;8.53;;;3.63;;
69910;SDS011;63555;49.920;17.868;2023-04-24T04:48:21;5.63;;;3.40;;
69910;SDS011;63555;49.920;17.868;2023-04-24T04:53:22;7.40;;;3.43;;
69910;SDS011;63555;49.920;17.868;2023-04-24T04:58:22;10.77;;;3.97;;
69910;SDS011;63555;49.920;17.868;2023-04-24T05:03:23;6.20;;;3.70;;
69910;SDS011;63555;49.920;17.868;2023-04-24T05:08:23;8.97;;;4.10;;
69910;SDS011;63555;49.920;17.868;2023-04-24T05:13:23;9.17;;;3.77;;
69910;SDS011;63555;49.920;17.868;2023-04-24T05:18:24;12.63;;;4.10;;
69910;SDS011;63555;49.920;17.868;2023-04-24T05:23:24;10.80;;;4.40;;
69910;SDS011;63555;49.920;17.868;2023-04-24T05:28:25;7.87;;;4.23;;
69910;SDS011;63555;49.920;17.868;2023-04-24T05:33:28;10.27;;;4.05;;
69910;SDS011;63555;49.920;17.868;2023-04-24T05:38:28;8.60;;;3.80;;
69910;SDS011;63555;49.920;17.868;2023-04-24T05:43:28;8.60;;;4.17;;
69910;SDS011;63555;49.920;17.868;2023-04-24T05:48:29;9.63;;;3.53;;
69910;SDS011;63555;49.920;17.868;2023-04-24T05:53:29;9.13;;;3.63;;
69910;SDS011;63555;49.920;17.868;2023-04-24T05:58:30;7.63;;;3.20;;
69910;SDS011;63555;49.920;17.868;2023-04-24T06:03:31;6.27;;;3.40;;
69910;SDS011;63555;49.920;17.868;2023-04-24T06:08:31;5.90;;;2.85;;
69910;SDS011;63555;49.920;17.868;2023-04-24T06:13:32;5.30;;;3.42;;
69910;SDS011;63555;49.920;17.868;2023-04-24T06:18:32;10.20;;;3.67;;
69910;SDS011;63555;49.920;17.868;2023-04-24T06:23:33;6.47;;;3.20;;
69910;SDS011;63555;49.920;17.868;2023-04-24T06:28:33;5.37;;;3.17;;
69910;SDS011;63555;49.920;17.868;2023-04-24T06:33:34;6.25;;;3.40;;
69910;SDS011;63555;49.920;17.868;2023-04-24T06:38:35;6.87;;;3.47;;
69910;SDS011;63555;49.920;17.868;2023-04-24T06:43:35;6.30;;;3.30;;
69910;SDS011;63555;49.920;17.868;2023-04-24T06:48:36;6.23;;;3.30;;
69910;SDS011;63555;49.920;17.868;2023-04-24T06:53:36;12.57;;;3.60;;
69910;SDS011;63555;49.920;17.868;2023-04-24T06:58:37;5.70;;;3.10;;
69910;SDS011;63555;49.920;17.868;2023-04-24T07:03:37;7.93;;;2.80;;
69910;SDS011;63555;49.920;17.868;2023-04-24T07:08:38;6.40;;;3.27;;
69910;SDS011;63555;49.920;17.868;2023-04-24T07:13:38;6.65;;;3.03;;
69910;SDS011;63555;49.920;17.868;2023-04-24T07:18:41;8.53;;;3.17;;
69910;SDS011;63555;49.920;17.868;2023-04-24T07:23:42;8.23;;;3.50;;
69910;SDS011;63555;49.920;17.868;2023-04-24T07:28:42;11.50;;;5.40;;
69910;SDS011;63555;49.920;17.868;2023-04-24T07:33:42;11.03;;;3.67;;
69910;SDS011;63555;49.920;17.868;2023-04-24T07:38:43;6.07;;;3.33;;
69910;SDS011;63555;49.920;17.868;2023-04-24T07:43:43;5.93;;;2.87;;
69910;SDS011;63555;49.920;17.868;2023-04-24T07:48:44;12.60;;;3.90;;
69910;SDS011;63555;49.920;17.868;2023-04-24T07:53:46;5.90;;;3.00;;
69910;SDS011;63555;49.920;17.868;2023-04-24T07:58:46;5.90;;;3.30;;
69910;SDS011;63555;49.920;17.868;2023-04-24T08:03:47;4.20;;;2.97;;
69910;SDS011;63555;49.920;17.868;2023-04-24T08:08:47;8.67;;;3.60;;
69910;SDS011;63555;49.920;17.868;2023-04-24T08:13:47;7.37;;;3.63;;
69910;SDS011;63555;49.920;17.868;2023-04-24T08:18:48;4.80;;;3.20;;
69910;SDS011;63555;49.920;17.868;2023-04-24T08:23:48;6.73;;;3.00;;
69910;SDS011;63555;49.920;17.868;2023-04-24T08:28:48;5.40;;;3.60;;
69910;SDS011;63555;49.920;17.868;2023-04-24T08:33:49;5.72;;;3.25;;
69910;SDS011;63555;49.920;17.868;2023-04-24T08:38:49;5.60;;;3.30;;
69910;SDS011;63555;49.920;17.868;2023-04-24T08:43:50;6.97;;;3.55;;
69910;SDS011;63555;49.920;17.868;2023-04-24T08:48:51;10.13;;;3.77;;
69910;SDS011;63555;49.920;17.868;2023-04-24T08:53:52;7.07;;;3.63;;
69910;SDS011;63555;49.920;17.868;2023-04-24T08:58:54;6.32;;;3.42;;
69910;SDS011;63555;49.920;17.868;2023-04-24T09:03:55;6.50;;;3.85;;
69910;SDS011;63555;49.920;17.868;2023-04-24T09:08:56;8.10;;;4.53;;
69910;SDS011;63555;49.920;17.868;2023-04-24T09:14:00;8.52;;;4.50;;
69910;SDS011;63555;49.920;17.868;2023-04-24T09:19:00;7.60;;;4.32;;
69910;SDS011;63555;49.920;17.868;2023-04-24T09:24:02;10.37;;;4.20;;
69910;SDS011;63555;49.920;17.868;2023-04-24T09:29:04;8.35;;;4.10;;
69910;SDS011;63555;49.920;17.868;2023-04-24T09:34:05;5.72;;;3.95;;
69910;SDS011;63555;49.920;17.868;2023-04-24T09:39:09;8.17;;;3.40;;
69910;SDS011;63555;49.920;17.868;2023-04-24T09:44:16;5.18;;;3.70;;
69910;SDS011;63555;49.920;17.868;2023-04-24T09:49:21;7.30;;;3.87;;
69910;SDS011;63555;49.920;17.868;2023-04-24T09:54:24;7.07;;;3.28;;
69910;SDS011;63555;49.920;17.868;2023-04-24T09:59:25;7.03;;;3.50;;
69910;SDS011;63555;49.920;17.868;2023-04-24T10:04:26;5.83;;;3.83;;
69910;SDS011;63555;49.920;17.868;2023-04-24T10:09:28;7.33;;;3.80;;
69910;SDS011;63555;49.920;17.868;2023-04-24T10:14:28;6.28;;;3.60;;
69910;SDS011;63555;49.920;17.868;2023-04-24T10:19:29;7.33;;;3.90;;
69910;SDS011;63555;49.920;17.868;2023-04-24T10:24:31;8.85;;;3.88;;
69910;SDS011;63555;49.920;17.868;2023-04-24T10:29:33;7.57;;;4.13;;
69910;SDS011;63555;49.920;17.868;2023-04-24T10:34:35;7.32;;;3.90;;
69910;SDS011;63555;49.920;17.868;2023-04-24T10:39:36;9.17;;;3.83;;
69910;SDS011;63555;49.920;17.868;2023-04-24T10:44:37;8.73;;;4.00;;
69910;SDS011;63555;49.920;17.868;2023-04-24T10:49:37;6.27;;;4.07;;
69910;SDS011;63555;49.920;17.868;2023-04-24T10:54:42;6.63;;;4.30;;
69910;SDS011;63555;49.920;17.868;2023-04-24T10:59:45;6.82;;;3.88;;
69910;SDS011;63555;49.920;17.868;2023-04-24T11:04:50;7.53;;;4.10;;
69910;SDS011;63555;49.920;17.868;2023-04-24T11:09:57;6.95;;;4.28;;
69910;SDS011;63555;49.920;17.868;2023-04-24T11:15:01;6.57;;;4.00;;
69910;SDS011;63555;49.920;17.868;2023-04-24T11:20:05;8.10;;;4.63;;
69910;SDS011;63555;49.920;17.868;2023-04-24T11:25:13;18.07;;;4.90;;
69910;SDS011;63555;49.920;17.868;2023-04-24T11:30:19;9.05;;;4.40;;
69910;SDS011;63555;49.920;17.868;2023-04-24T11:35:21;7.70;;;4.40;;
69910;SDS011;63555;49.920;17.868;2023-04-24T11:40:24;7.50;;;4.93;;
69910;SDS011;63555;49.920;17.868;2023-04-24T11:45:28;9.10;;;5.80;;
69910;SDS011;63555;49.920;17.868;2023-04-24T11:50:29;9.30;;;5.77;;
69910;SDS011;63555;49.920;17.868;2023-04-24T11:55:30;14.02;;;6.68;;
69910;SDS011;63555;49.920;17.868;2023-04-24T12:00:31;26.77;;;15.80;;
69910;SDS011;63555;49.920;17.868;2023-04-24T12:05:34;14.07;;;8.20;;
69910;SDS011;63555;49.920;17.868;2023-04-24T12:10:35;21.23;;;8.63;;
69910;SDS011;63555;49.920;17.868;2023-04-24T12:15:35;16.50;;;9.20;;
69910;SDS011;63555;49.920;17.868;2023-04-24T12:20:40;15.52;;;9.85;;
69910;SDS011;63555;49.920;17.868;2023-04-24T12:25:41;15.07;;;9.33;;
69910;SDS011;63555;49.920;17.868;2023-04-24T12:30:46;14.57;;;8.50;;
69910;SDS011;63555;49.920;17.868;2023-04-24T12:35:51;12.32;;;8.48;;
69910;SDS011;63555;49.920;17.868;2023-04-24T12:41:09;13.60;;;8.90;;
69910;SDS011;63555;49.920;17.868;2023-04-24T12:46:11;13.35;;;8.80;;
69910;SDS011;63555;49.920;17.868;2023-04-24T12:51:12;10.57;;;7.90;;
69910;SDS011;63555;49.920;17.868;2023-04-24T12:56:12;14.17;;;8.13;;
69910;SDS011;63555;49.920;17.868;2023-04-24T13:01:12;11.97;;;8.57;;
69910;SDS011;63555;49.920;17.868;2023-04-24T13:06:13;12.83;;;8.50;;
69910;SDS011;63555;49.920;17.868;2023-04-24T13:11:13;14.27;;;10.07;;
69910;SDS011;63555;49.920;17.868;2023-04-24T13:16:14;15.73;;;9.50;;
69910;SDS011;63555;49.920;17.868;2023-04-24T13:21:14;13.37;;;9.70;;
69910;SDS011;63555;49.920;17.868;2023-04-24T13:26:15;13.83;;;8.27;;
69910;SDS011;63555;49.920;17.868;2023-04-24T13:31:15;13.90;;;9.23;;
69910;SDS011;63555;49.920;17.868;2023-04-24T13:36:15;13.73;;;8.57;;
69910;SDS011;63555;49.920;17.868;2023-04-24T13:41:17;13.47;;;8.47;;
69910;SDS011;63555;49.920;17.868;2023-04-24T13:46:17;12.17;;;8.40;;
69910;SDS011;63555;49.920;17.868;2023-04-24T13:51:18;13.00;;;9.13;;
69910;SDS011;63555;49.920;17.868;2023-04-24T13:56:18;14.63;;;10.00;;
69910;SDS011;63555;49.920;17.868;2023-04-24T14:01:18;14.73;;;8.97;;
69910;SDS011;63555;49.920;17.868;2023-04-24T14:06:19;12.73;;;9.07;;
69910;SDS011;63555;49.920;17.868;2023-04-24T14:11:20;15.35;;;10.35;;
69910;SDS011;63555;49.920;17.868;2023-04-24T14:16:20;16.97;;;10.87;;
69910;SDS011;63555;49.920;17.868;2023-04-24T14:21:21;18.10;;;11.57;;
69910;SDS011;63555;49.920;17.868;2023-04-24T14:26:21;14.70;;;9.67;;
69910;SDS011;63555;49.920;17.868;2023-04-24T14:31:21;16.67;;;9.67;;
69910;SDS011;63555;49.920;17.868;2023-04-24T14:36:22;17.40;;;11.13;;
69910;SDS011;63555;49.920;17.868;2023-04-24T14:41:22;16.40;;;10.87;;
69910;SDS011;63555;49.920;17.868;2023-04-24T14:46:22;14.70;;;10.07;;
69910;SDS011;63555;49.920;17.868;2023-04-24T14:51:23;13.40;;;9.37;;
69910;SDS011;63555;49.920;17.868;2023-04-24T14:56:23;15.90;;;10.43;;
69910;SDS011;63555;49.920;17.868;2023-04-24T15:01:24;14.10;;;9.70;;
69910;SDS011;63555;49.920;17.868;2023-04-24T15:06:27;16.60;;;10.67;;
69910;SDS011;63555;49.920;17.868;2023-04-24T15:11:31;12.02;;;7.90;;
69910;SDS011;63555;49.920;17.868;2023-04-24T15:16:32;15.07;;;8.97;;
69910;SDS011;63555;49.920;17.868;2023-04-24T15:21:32;18.63;;;10.50;;
69910;SDS011;63555;49.920;17.868;2023-04-24T15:26:33;17.60;;;9.23;;
69910;SDS011;63555;49.920;17.868;2023-04-24T15:31:33;14.05;;;8.75;;
69910;SDS011;63555;49.920;17.868;2023-04-24T15:36:34;15.17;;;8.30;;
69910;SDS011;63555;49.920;17.868;2023-04-24T15:41:34;15.63;;;9.60;;
69910;SDS011;63555;49.920;17.868;2023-04-24T15:46:36;15.23;;;9.80;;
69910;SDS011;63555;49.920;17.868;2023-04-24T15:51:36;14.37;;;9.30;;
69910;SDS011;63555;49.920;17.868;2023-04-24T15:56:37;15.23;;;9.67;;
69910;SDS011;63555;49.920;17.868;2023-04-24T16:01:37;13.57;;;9.17;;
69910;SDS011;63555;49.920;17.868;2023-04-24T16:06:37;18.00;;;10.00;;
69910;SDS011;63555;49.920;17.868;2023-04-24T16:11:38;16.57;;;11.07;;
69910;SDS011;63555;49.920;17.868;2023-04-24T16:16:38;17.63;;;11.63;;
69910;SDS011;63555;49.920;17.868;2023-04-24T16:21:39;18.80;;;10.90;;
69910;SDS011;63555;49.920;17.868;2023-04-24T16:26:39;20.50;;;10.60;;
69910;SDS011;63555;49.920;17.868;2023-04-24T16:31:40;15.17;;;9.23;;
69910;SDS011;63555;49.920;17.868;2023-04-24T16:36:41;17.63;;;10.33;;
69910;SDS011;63555;49.920;17.868;2023-04-24T16:41:41;22.00;;;13.15;;
69910;SDS011;63555;49.920;17.868;2023-04-24T16:46:42;23.43;;;13.77;;
69910;SDS011;63555;49.920;17.868;2023-04-24T16:51:43;18.75;;;10.75;;
69910;SDS011;63555;49.920;17.868;2023-04-24T16:56:44;14.27;;;9.17;;
69910;SDS011;63555;49.920;17.868;2023-04-24T17:01:45;14.80;;;9.10;;
69910;SDS011;63555;49.920;17.868;2023-04-24T17:06:46;15.15;;;10.15;;
69910;SDS011;63555;49.920;17.868;2023-04-24T17:11:46;21.17;;;11.20;;
69910;SDS011;63555;49.920;17.868;2023-04-24T17:16:46;14.17;;;9.60;;
69910;SDS011;63555;49.920;17.868;2023-04-24T17:21:47;14.83;;;9.70;;
69910;SDS011;63555;49.920;17.868;2023-04-24T17:26:47;17.10;;;10.07;;
69910;SDS011;63555;49.920;17.868;2023-04-24T17:31:47;15.50;;;10.57;;
69910;SDS011;63555;49.920;17.868;2023-04-24T17:36:48;21.07;;;12.60;;
69910;SDS011;63555;49.920;17.868;2023-04-24T17:41:48;22.10;;;13.20;;
69910;SDS011;63555;49.920;17.868;2023-04-24T17:46:48;21.27;;;13.07;;
69910;SDS011;63555;49.920;17.868;2023-04-24T17:51:49;30.70;;;17.40;;
69910;SDS011;63555;49.920;17.868;2023-04-24T17:56:49;23.83;;;15.33;;
69910;SDS011;63555;49.920;17.868;2023-04-24T18:01:51;23.42;;;14.18;;
69910;SDS011;63555;49.920;17.868;2023-04-24T18:06:52;21.90;;;14.73;;
69910;SDS011;63555;49.920;17.868;2023-04-24T18:11:52;22.40;;;14.63;;
69910;SDS011;63555;49.920;17.868;2023-04-24T18:16:53;25.15;;;14.80;;
69910;SDS011;63555;49.920;17.868;2023-04-24T18:21:54;22.37;;;13.77;;
69910;SDS011;63555;49.920;17.868;2023-04-24T18:26:54;23.90;;;14.48;;
69910;SDS011;63555;49.920;17.868;2023-04-24T18:31:55;25.60;;;14.40;;
69910;SDS011;63555;49.920;17.868;2023-04-24T18:36:55;26.63;;;15.50;;
69910;SDS011;63555;49.920;17.868;2023-04-24T18:41:55;23.87;;;13.90;;
69910;SDS011;63555;49.920;17.868;2023-04-24T18:46:56;25.57;;;14.37;;
69910;SDS011;63555;49.920;17.868;2023-04-24T18:51:56;24.23;;;12.67;;
69910;SDS011;63555;49.920;17.868;2023-04-24T18:56:57;20.33;;;13.37;;
69910;SDS011;63555;49.920;17.868;2023-04-24T19:01:57;21.70;;;12.87;;
69910;SDS011;63555;49.920;17.868;2023-04-24T19:06:57;25.37;;;14.93;;
69910;SDS011;63555;49.920;17.868;2023-04-24T19:11:58;30.43;;;16.53;;
69910;SDS011;63555;49.920;17.868;2023-04-24T19:17:00;28.45;;;14.93;;
69910;SDS011;63555;49.920;17.868;2023-04-24T19:22:01;28.25;;;15.05;;
69910;SDS011;63555;49.920;17.868;2023-04-24T19:27:01;27.45;;;15.32;;
69910;SDS011;63555;49.920;17.868;2023-04-24T19:32:02;26.03;;;15.10;;
69910;SDS011;63555;49.920;17.868;2023-04-24T19:37:02;24.83;;;15.50;;
69910;SDS011;63555;49.920;17.868;2023-04-24T19:42:03;32.57;;;16.60;;
69910;SDS011;63555;49.920;17.868;2023-04-24T19:47:04;26.95;;;15.30;;
69910;SDS011;63555;49.920;17.868;2023-04-24T19:52:04;32.53;;;16.37;;
69910;SDS011;63555;49.920;17.868;2023-04-24T19:57:05;27.53;;;15.60;;
69910;SDS011;63555;49.920;17.868;2023-04-24T20:02:05;30.30;;;16.13;;
69910;SDS011;63555;49.920;17.868;2023-04-24T20:07:06;29.95;;;17.20;;
69910;SDS011;63555;49.920;17.868;2023-04-24T20:12:07;31.33;;;17.30;;
69910;SDS011;63555;49.920;17.868;2023-04-24T20:17:08;29.33;;;15.82;;
69910;SDS011;63555;49.920;17.868;2023-04-24T20:22:09;30.63;;;17.73;;
69910;SDS011;63555;49.920;17.868;2023-04-24T20:27:10;31.47;;;18.03;;
69910;SDS011;63555;49.920;17.868;2023-04-24T20:32:12;35.15;;;18.42;;
69910;SDS011;63555;49.920;17.868;2023-04-24T20:37:12;36.67;;;17.90;;
69910;SDS011;63555;49.920;17.868;2023-04-24T20:42:12;30.20;;;15.97;;
69910;SDS011;63555;49.920;17.868;2023-04-24T20:47:15;33.08;;;17.67;;
69910;SDS011;63555;49.920;17.868;2023-04-24T20:52:15;33.23;;;16.37;;
69910;SDS011;63555;49.920;17.868;2023-04-24T20:57:16;34.17;;;17.23;;
69910;SDS011;63555;49.920;17.868;2023-04-24T21:02:16;32.20;;;16.80;;
69910;SDS011;63555;49.920;17.868;2023-04-24T21:07:17;35.87;;;18.00;;
69910;SDS011;63555;49.920;17.868;2023-04-24T21:12:18;19.73;;;10.57;;
69910;SDS011;63555;49.920;17.868;2023-04-24T21:17:18;13.30;;;8.00;;
69910;SDS011;63555;49.920;17.868;2023-04-24T21:22:18;11.30;;;6.30;;
69910;SDS011;63555;49.920;17.868;2023-04-24T21:27:18;12.93;;;7.90;;
69910;SDS011;63555;49.920;17.868;2023-04-24T21:32:19;17.23;;;8.50;;
69910;SDS011;63555;49.920;17.868;2023-04-24T21:37:20;16.45;;;9.85;;
69910;SDS011;63555;49.920;17.868;2023-04-24T21:42:20;17.70;;;9.43;;
69910;SDS011;63555;49.920;17.868;2023-04-24T21:47:21;12.37;;;6.80;;
69910;SDS011;63555;49.920;17.868;2023-04-24T21:52:21;8.57;;;5.07;;
69910;SDS011;63555;49.920;17.868;2023-04-24T21:57:21;7.80;;;3.90;;
69910;SDS011;63555;49.920;17.868;2023-04-24T22:02:22;6.93;;;3.80;;
69910;SDS011;63555;49.920;17.868;2023-04-24T22:07:22;6.70;;;3.67;;
69910;SDS011;63555;49.920;17.868;2023-04-24T22:12:23;6.10;;;3.57;;
69910;SDS011;63555;49.920;17.868;2023-04-24T22:17:23;6.97;;;3.17;;
69910;SDS011;63555;49.920;17.868;2023-04-24T22:22:23;6.47;;;3.47;;
69910;SDS011;63555;49.920;17.868;2023-04-24T22:27:24;7.20;;;3.80;;
69910;SDS011;63555;49.920;17.868;2023-04-24T22:32:25;8.57;;;4.68;;
69910;SDS011;63555;49.920;17.868;2023-04-24T22:37:25;8.55;;;4.70;;
69910;SDS011;63555;49.920;17.868;2023-04-24T22:42:26;11.07;;;4.97;;
69910;SDS011;63555;49.920;17.868;2023-04-24T22:47:28;9.53;;;4.30;;
69910;SDS011;63555;49.920;17.868;2023-04-24T22:52:28;7.27;;;3.30;;
69910;SDS011;63555;49.920;17.868;2023-04-24T22:57:29;10.02;;;4.18;;
69910;SDS011;63555;49.920;17.868;2023-04-24T23:02:29;9.23;;;4.23;;
69910;SDS011;63555;49.920;17.868;2023-04-24T23:07:31;7.53;;;4.35;;
69910;SDS011;63555;49.920;17.868;2023-04-24T23:12:31;7.70;;;4.60;;
69910;SDS011;63555;49.920;17.868;2023-04-24T23:17:32;8.40;;;4.30;;
69910;SDS011;63555;49.920;17.868;2023-04-24T23:22:32;8.27;;;4.80;;
69910;SDS011;63555;49.920;17.868;2023-04-24T23:27:33;7.70;;;4.30;;
69910;SDS011;63555;49.920;17.868;2023-04-24T23:32:34;5.93;;;3.70;;
69910;SDS011;63555;49.920;17.868;2023-04-24T23:37:34;7.50;;;4.20;;
69910;SDS011;63555;49.920;17.868;2023-04-24T23:42:37;5.10;;;3.10;;
69910;SDS011;63555;49.920;17.868;2023-04-24T23:47:37;8.27;;;3.53;;
69910;SDS011;63555;49.920;17.868;2023-04-24T23:52:38;5.33;;;3.07;;
69910;SDS011;63555;49.920;17.868;2023-04-24T23:57:38;4.90;;;3.05;;
